createdAt,value
2023-05-17T00:00:17.181Z,6.80
2023-05-17T00:02:43.968Z,7.20
2023-05-17T00:07:37.687Z,6.53
2023-05-17T00:10:04.608Z,6.32
2023-05-17T00:12:31.364Z,6.80
2023-05-17T00:14:58.153Z,7.15
2023-05-17T00:17:24.866Z,6.15
2023-05-17T00:19:51.729Z,6.55
2023-05-17T00:22:18.522Z,6.50
2023-05-17T00:24:45.161Z,6.43
2023-05-17T00:27:11.853Z,6.28
2023-05-17T00:29:38.517Z,5.93
2023-05-17T00:32:05.429Z,6.43
2023-05-17T00:36:57.570Z,5.93
2023-05-17T00:39:24.322Z,6.20
2023-05-17T00:46:41.979Z,5.93
2023-05-17T00:49:08.755Z,6.80
2023-05-17T00:51:35.909Z,5.78
2023-05-17T00:54:03.605Z,6.45
2023-05-17T01:01:59.662Z,6.85
2023-05-17T01:06:52.038Z,6.28
2023-05-17T01:09:18.937Z,6.15
2023-05-17T01:11:56.058Z,6.15
2023-05-17T01:14:42.958Z,6.68
2023-05-17T01:17:25.813Z,6.38
2023-05-17T01:20:12.252Z,6.13
2023-05-17T01:27:57.931Z,5.57
2023-05-17T01:30:26.051Z,6.00
2023-05-17T01:32:53.640Z,5.32
2023-05-17T01:45:29.748Z,6.45
2023-05-17T01:48:05.964Z,5.45
2023-05-17T01:50:33.174Z,5.72
2023-05-17T01:53:03.152Z,5.32
2023-05-17T02:03:07.125Z,5.70
2023-05-17T02:05:33.824Z,6.03
2023-05-17T02:08:00.615Z,7.10
2023-05-17T02:10:27.259Z,6.43
2023-05-17T02:12:53.947Z,6.35
2023-05-17T02:20:21.176Z,7.95
2023-05-17T02:22:47.813Z,7.15
2023-05-17T02:25:14.524Z,7.75
2023-05-17T02:27:41.297Z,7.25
2023-05-17T02:30:08.423Z,7.32
2023-05-17T02:32:35.176Z,7.97
2023-05-17T02:35:01.913Z,6.93
2023-05-17T02:37:28.761Z,6.90
2023-05-17T02:39:55.637Z,7.63
2023-05-17T02:42:22.390Z,7.57
2023-05-17T02:44:52.996Z,7.60
2023-05-17T02:49:47.177Z,7.65
2023-05-17T02:52:13.900Z,7.85
2023-05-17T02:54:40.634Z,8.45
2023-05-17T02:57:07.602Z,8.05
2023-05-17T02:59:34.338Z,8.38
2023-05-17T03:09:17.334Z,7.78
2023-05-17T03:11:47.139Z,8.85
2023-05-17T03:14:19.760Z,8.20
2023-05-17T03:16:46.604Z,8.82
2023-05-17T03:19:13.749Z,8.13
2023-05-17T03:24:08.228Z,8.05
2023-05-17T03:26:36.756Z,8.98
2023-05-17T03:31:31.339Z,10.38
2023-05-17T03:33:58.524Z,10.02
2023-05-17T03:38:51.047Z,9.30
2023-05-17T03:41:17.841Z,10.10
2023-05-17T03:43:44.665Z,8.93
2023-05-17T03:46:11.752Z,9.23
2023-05-17T03:48:38.755Z,9.30
2023-05-17T03:51:06.028Z,9.80
2023-05-17T03:53:33.717Z,10.15
2023-05-17T03:56:01.573Z,9.68
2023-05-17T03:58:29.000Z,9.38
2023-05-17T04:03:21.657Z,9.57
2023-05-17T04:05:48.464Z,9.00
2023-05-17T04:08:15.210Z,10.23
2023-05-17T04:10:42.451Z,9.52
2023-05-17T04:13:09.764Z,10.23
2023-05-17T04:18:04.711Z,10.25
2023-05-17T04:20:31.774Z,10.38
2023-05-17T04:25:24.780Z,10.20
2023-05-17T04:27:51.836Z,10.50
2023-05-17T04:32:47.013Z,10.57
2023-05-17T04:35:14.576Z,10.77
2023-05-17T04:37:46.759Z,10.32
2023-05-17T04:40:14.680Z,11.27
2023-05-17T04:42:41.554Z,11.52
2023-05-17T04:45:08.576Z,11.52
2023-05-17T04:47:35.811Z,10.27
2023-05-17T04:50:04.795Z,11.80
2023-05-17T04:54:58.014Z,11.57
2023-05-17T04:57:24.878Z,12.52
2023-05-17T05:00:07.509Z,11.55
2023-05-17T05:02:35.722Z,12.60
2023-05-17T05:05:05.140Z,12.45
2023-05-17T05:07:33.081Z,11.05
2023-05-17T05:10:00.078Z,11.70
2023-05-17T05:12:26.868Z,12.27
2023-05-17T05:14:53.503Z,12.15
2023-05-17T05:17:20.524Z,12.70
2023-05-17T05:19:47.320Z,11.63
2023-05-17T05:22:14.013Z,11.38
2023-05-17T05:28:03.208Z,9.80
2023-05-17T05:30:32.055Z,10.88
2023-05-17T05:32:59.098Z,11.57
2023-05-17T05:37:56.057Z,11.68
2023-05-17T05:40:23.366Z,10.48
2023-05-17T05:53:18.194Z,10.27
2023-05-17T05:58:16.023Z,10.02
2023-05-17T06:00:43.574Z,11.27
2023-05-17T06:03:10.393Z,10.25
2023-05-17T06:05:37.406Z,9.73
2023-05-17T06:08:04.230Z,7.85
2023-05-17T06:12:56.325Z,8.68
2023-05-17T06:15:23.005Z,7.38
2023-05-17T06:17:49.832Z,6.40
2023-05-17T06:22:45.289Z,5.82
2023-05-17T06:25:11.988Z,5.85
2023-05-17T06:27:38.744Z,6.13
2023-05-17T06:30:07.467Z,5.85
2023-05-17T06:32:34.385Z,5.63
2023-05-17T06:35:01.689Z,6.22
2023-05-17T06:37:28.510Z,5.85
2023-05-17T06:44:52.861Z,6.40
2023-05-17T06:47:19.660Z,5.82
2023-05-17T06:49:46.329Z,6.82
2023-05-17T06:52:13.060Z,7.13
2023-05-17T06:54:39.775Z,6.22
2023-05-17T06:59:32.049Z,6.68
2023-05-17T07:02:00.307Z,7.65
2023-05-17T07:04:27.393Z,6.78
2023-05-17T07:06:54.326Z,7.60
2023-05-17T07:09:21.675Z,8.57
2023-05-17T07:14:14.106Z,6.50
2023-05-17T07:16:41.279Z,7.32
2023-05-17T07:19:08.124Z,6.20
2023-05-17T07:24:00.424Z,6.55
2023-05-17T07:27:01.002Z,7.05
2023-05-17T07:31:53.121Z,5.45
2023-05-17T07:34:19.995Z,6.10
2023-05-17T07:36:46.716Z,6.97
2023-05-17T07:39:13.524Z,6.55
2023-05-17T07:41:40.225Z,5.05
2023-05-17T07:44:06.995Z,5.00
2023-05-17T07:46:33.817Z,5.43
2023-05-17T07:49:00.733Z,4.82
2023-05-17T07:51:27.580Z,4.45
2023-05-17T07:53:54.275Z,4.97
2023-05-17T07:56:21.012Z,5.50
2023-05-17T07:58:47.734Z,4.60
2023-05-17T08:01:14.433Z,4.38
2023-05-17T08:03:48.023Z,5.20
2023-05-17T08:06:18.232Z,4.32
2023-05-17T08:08:45.284Z,4.63
2023-05-17T08:13:38.370Z,4.85
2023-05-17T08:16:14.313Z,4.80
2023-05-17T08:23:33.023Z,3.92
2023-05-17T08:25:59.735Z,3.97
2023-05-17T08:28:26.390Z,3.35
2023-05-17T08:30:53.074Z,3.30
2023-05-17T08:35:49.153Z,3.13
2023-05-17T08:38:16.705Z,3.63
2023-05-17T08:40:44.697Z,3.05
2023-05-17T08:43:27.951Z,3.38
2023-05-17T08:48:23.158Z,3.53
2023-05-17T08:50:54.385Z,3.00
2023-05-17T08:53:21.109Z,2.42
2023-05-17T08:55:50.721Z,3.10
2023-05-17T08:58:20.121Z,2.97
2023-05-17T09:00:47.690Z,2.83
2023-05-17T09:03:16.123Z,3.20
2023-05-17T09:05:43.458Z,3.03
2023-05-17T09:08:14.118Z,2.78
2023-05-17T09:15:34.318Z,3.42
2023-05-17T09:18:01.453Z,3.22
2023-05-17T09:20:35.447Z,3.38
2023-05-17T09:25:39.085Z,3.88
2023-05-17T09:28:10.060Z,3.60
2023-05-17T09:30:40.091Z,3.58
2023-05-17T09:33:08.088Z,3.20
2023-05-17T09:35:35.814Z,3.17
2023-05-17T09:38:14.768Z,3.05
2023-05-17T09:40:44.611Z,2.80
2023-05-17T09:43:12.049Z,3.10
2023-05-17T09:56:06.973Z,3.92
2023-05-17T09:58:36.248Z,3.78
2023-05-17T10:01:03.926Z,2.92
2023-05-17T10:08:23.769Z,3.20
2023-05-17T10:10:51.361Z,3.60
2023-05-17T10:13:22.096Z,3.50
2023-05-17T10:15:49.201Z,3.20
2023-05-17T10:18:16.314Z,3.15
2023-05-17T10:20:43.543Z,3.22
2023-05-17T10:23:11.712Z,3.33
2023-05-17T10:28:06.988Z,3.55
2023-05-17T10:30:36.046Z,3.22
2023-05-17T10:33:03.486Z,3.42
2023-05-17T10:35:31.154Z,3.53
2023-05-17T10:37:58.140Z,3.70
2023-05-17T10:40:25.000Z,3.50
2023-05-17T10:52:48.168Z,4.40
2023-05-17T10:55:18.829Z,4.45
2023-05-17T11:00:28.050Z,4.97
2023-05-17T11:03:10.793Z,4.72
2023-05-17T11:05:38.039Z,4.75
2023-05-17T11:08:24.996Z,5.05
2023-05-17T11:11:11.014Z,4.65
2023-05-17T11:16:16.175Z,4.93
2023-05-17T11:18:47.420Z,5.00
2023-05-17T11:21:15.493Z,4.22
2023-05-17T11:23:46.225Z,5.10
2023-05-17T11:26:23.079Z,4.88
2023-05-17T11:29:00.035Z,4.57
2023-05-17T11:31:31.044Z,5.30
2023-05-17T11:33:58.153Z,4.55
2023-05-17T11:36:25.546Z,4.30
2023-05-17T11:44:07.548Z,4.95
2023-05-17T11:51:26.416Z,4.50
2023-05-17T11:56:29.029Z,4.43
2023-05-17T12:04:02.782Z,4.68
2023-05-17T12:08:55.182Z,4.95
2023-05-17T12:11:22.152Z,4.47
2023-05-17T12:13:49.177Z,4.40
2023-05-17T12:16:18.056Z,4.78
2023-05-17T12:23:43.575Z,4.55
2023-05-17T12:28:38.795Z,5.25
2023-05-17T12:31:08.793Z,4.15
2023-05-17T12:33:36.643Z,4.45
2023-05-17T12:36:04.038Z,5.18
2023-05-17T12:38:33.153Z,4.88
2023-05-17T12:41:04.142Z,4.80
2023-05-17T12:43:37.306Z,4.55
2023-05-17T12:46:13.367Z,4.97
2023-05-17T12:48:43.497Z,3.83
2023-05-17T12:51:14.418Z,4.22
2023-05-17T12:53:51.366Z,3.33
2023-05-17T12:56:19.035Z,4.15
2023-05-17T12:59:03.859Z,3.63
2023-05-17T13:06:52.118Z,4.50
2023-05-17T13:11:51.240Z,4.43
2023-05-17T13:19:28.169Z,2.65
2023-05-17T13:21:55.034Z,5.82
2023-05-17T13:24:21.831Z,4.50
2023-05-17T13:26:48.464Z,3.92
2023-05-17T13:29:15.524Z,4.88
2023-05-17T13:31:43.146Z,4.47
2023-05-17T13:34:09.833Z,2.95
2023-05-17T13:39:02.429Z,3.05
2023-05-17T13:41:29.478Z,3.53
2023-05-17T13:43:59.452Z,3.45
2023-05-17T13:56:09.771Z,3.38
2023-05-17T13:58:36.469Z,3.88
2023-05-17T14:01:03.676Z,2.25
2023-05-17T14:13:12.837Z,3.92
2023-05-17T14:15:40.252Z,3.70
2023-05-17T14:18:07.391Z,2.72
2023-05-17T14:25:25.708Z,3.40
2023-05-17T14:27:53.102Z,3.78
2023-05-17T14:30:20.224Z,3.83
2023-05-17T14:32:47.343Z,4.10
2023-05-17T14:35:15.179Z,4.28
2023-05-17T14:37:41.853Z,4.18
2023-05-17T14:40:09.312Z,3.70
2023-05-17T14:42:36.186Z,3.90
2023-05-17T14:45:02.834Z,4.20
2023-05-17T14:49:55.161Z,3.75
2023-05-17T14:52:21.962Z,4.50
2023-05-17T14:54:49.030Z,3.47
2023-05-17T15:02:07.431Z,3.75
2023-05-17T15:04:34.430Z,3.45
2023-05-17T15:07:01.204Z,3.55
2023-05-17T15:14:44.226Z,5.10
2023-05-17T15:19:36.915Z,4.45
2023-05-17T15:22:03.827Z,4.72
2023-05-17T15:26:56.521Z,5.25
2023-05-17T15:29:23.355Z,4.32
2023-05-17T15:31:50.046Z,5.25
2023-05-17T15:34:16.883Z,4.60
2023-05-17T15:36:43.645Z,4.63
2023-05-17T15:41:37.530Z,3.38
2023-05-17T15:44:05.674Z,4.05
2023-05-17T15:48:58.123Z,4.15
2023-05-17T15:51:24.967Z,5.00
2023-05-17T15:56:20.335Z,5.13
2023-05-17T15:58:47.477Z,4.13
2023-05-17T16:03:39.665Z,3.63
2023-05-17T16:06:08.042Z,5.15
2023-05-17T16:08:34.746Z,4.18
2023-05-17T16:13:27.569Z,4.60
2023-05-17T16:15:55.478Z,4.50
2023-05-17T16:18:22.428Z,5.38
2023-05-17T16:20:56.680Z,4.75
2023-05-17T16:28:14.320Z,4.93
2023-05-17T16:35:32.108Z,6.03
2023-05-17T16:47:50.916Z,4.90
2023-05-17T16:50:17.692Z,4.82
2023-05-17T16:55:10.990Z,4.95
2023-05-17T16:57:37.788Z,4.53
2023-05-17T17:00:04.728Z,4.72
2023-05-17T17:02:31.709Z,5.72
2023-05-17T17:04:58.818Z,4.43
2023-05-17T17:07:25.730Z,3.63
2023-05-17T17:09:52.427Z,4.82
2023-05-17T17:12:24.672Z,4.35
2023-05-17T17:17:17.862Z,4.82
2023-05-17T17:19:44.638Z,5.30
2023-05-17T17:22:12.192Z,5.43
2023-05-17T17:24:39.717Z,4.60
2023-05-17T17:27:06.726Z,5.03
2023-05-17T17:29:34.167Z,5.50
2023-05-17T17:32:00.929Z,5.43
2023-05-17T17:34:27.740Z,5.25
2023-05-17T17:39:20.059Z,4.18
2023-05-17T17:41:47.100Z,4.43
2023-05-17T17:49:04.816Z,4.90
2023-05-17T17:51:31.629Z,4.95
2023-05-17T17:53:58.382Z,5.63
2023-05-17T17:56:25.948Z,4.57
2023-05-17T17:58:56.200Z,5.05
2023-05-17T18:06:14.827Z,5.53
2023-05-17T18:08:41.653Z,5.35
2023-05-17T18:11:08.412Z,6.15
2023-05-17T18:13:35.644Z,5.88
2023-05-17T18:16:02.427Z,5.35
2023-05-17T18:25:47.153Z,5.72
2023-05-17T18:28:13.904Z,5.93
2023-05-17T18:30:41.375Z,5.57
2023-05-17T18:35:33.827Z,6.50
2023-05-17T18:38:00.825Z,6.10
2023-05-17T18:40:27.806Z,5.53
2023-05-17T18:42:54.684Z,5.47
2023-05-17T18:45:21.726Z,5.38
2023-05-17T18:52:39.221Z,5.82
2023-05-17T18:57:31.830Z,6.32
2023-05-17T18:59:58.583Z,5.68
2023-05-17T19:02:31.423Z,6.30
2023-05-17T19:09:49.266Z,6.07
2023-05-17T19:12:16.211Z,5.38
2023-05-17T19:19:35.935Z,6.57
2023-05-17T19:24:29.181Z,6.65
2023-05-17T19:26:56.267Z,7.60
2023-05-17T19:29:23.086Z,7.10
2023-05-17T19:31:50.013Z,6.78
2023-05-17T19:34:16.789Z,6.97
2023-05-17T19:44:00.177Z,8.30
2023-05-17T19:46:26.952Z,7.75
2023-05-17T19:48:53.814Z,7.07
2023-05-17T19:58:37.081Z,8.48
2023-05-17T20:03:31.725Z,8.95
2023-05-17T20:05:58.927Z,7.93
2023-05-17T20:08:25.930Z,8.68
2023-05-17T20:10:53.016Z,9.35
2023-05-17T20:13:24.500Z,9.40
2023-05-17T20:15:51.719Z,8.90
2023-05-17T20:18:18.625Z,9.40
2023-05-17T20:20:45.503Z,8.90
2023-05-17T20:23:13.623Z,8.90
2023-05-17T20:25:41.826Z,8.82
2023-05-17T20:28:08.980Z,9.02
2023-05-17T20:30:36.690Z,9.57
2023-05-17T20:33:04.476Z,9.80
2023-05-17T20:35:31.479Z,9.77
2023-05-17T20:37:58.156Z,9.45
2023-05-17T20:40:24.931Z,11.52
2023-05-17T20:42:53.022Z,9.45
2023-05-17T20:45:19.842Z,9.45
2023-05-17T20:47:46.931Z,9.48
2023-05-17T20:50:14.519Z,9.05
2023-05-17T21:02:25.135Z,9.23
2023-05-17T21:04:54.874Z,9.27
2023-05-17T21:09:47.975Z,11.00
2023-05-17T21:12:14.784Z,10.95
2023-05-17T21:17:06.893Z,9.88
2023-05-17T21:19:33.682Z,9.48
2023-05-17T21:22:00.648Z,11.00
2023-05-17T21:24:27.493Z,10.55
2023-05-17T21:26:54.356Z,10.73
2023-05-17T21:31:46.874Z,10.57
2023-05-17T21:34:13.656Z,10.55
2023-05-17T21:39:06.054Z,10.05
2023-05-17T21:41:32.734Z,11.02
2023-05-17T21:46:24.905Z,12.70
2023-05-17T21:48:52.365Z,12.10
2023-05-17T21:51:19.132Z,11.70
2023-05-17T21:53:45.924Z,12.32
2023-05-17T21:56:12.636Z,13.43
2023-05-17T22:01:05.013Z,12.60
2023-05-17T22:03:31.890Z,12.38
2023-05-17T22:10:50.377Z,12.88
2023-05-17T22:13:18.440Z,13.52
2023-05-17T22:15:45.414Z,12.43
2023-05-17T22:18:15.391Z,12.52
2023-05-17T22:23:07.730Z,13.52
2023-05-17T22:25:35.733Z,12.70
2023-05-17T22:32:57.150Z,13.27
2023-05-17T22:37:51.957Z,14.48
2023-05-17T22:40:18.807Z,14.15
2023-05-17T22:45:12.765Z,14.18
2023-05-17T22:47:39.518Z,14.20
2023-05-17T22:52:31.970Z,14.55
2023-05-17T22:54:58.784Z,14.75
2023-05-17T22:57:25.772Z,14.85
2023-05-17T22:59:52.517Z,14.13
2023-05-17T23:07:47.833Z,15.10
2023-05-17T23:10:15.514Z,15.05
2023-05-17T23:15:08.053Z,14.93
2023-05-17T23:17:35.704Z,15.32
2023-05-17T23:22:34.097Z,16.23
2023-05-17T23:25:03.375Z,15.70
2023-05-17T23:27:30.480Z,16.40
2023-05-17T23:29:57.357Z,16.58
2023-05-17T23:32:24.338Z,15.48
2023-05-17T23:37:19.884Z,15.38
2023-05-17T23:39:46.567Z,15.30
2023-05-17T23:42:13.263Z,16.23
2023-05-17T23:44:43.117Z,15.90
2023-05-17T23:47:12.476Z,14.98
2023-05-17T23:49:39.205Z,15.13
2023-05-17T23:52:08.468Z,15.00
2023-05-17T23:54:35.163Z,13.88
